• Join FlightAware (Why Join?)
  • Login
  • US Flag 
02:35AM EDT


 

Airport Tracker/Info


-or-


 

Live Flight TrackerFlight Track Log ✈ CSN3104 ✈ 20-Apr-2013 ✈ ZBAA / PEK - ZGGG / CAN

Flight Track Log - Related Links

Times and Time Zones

All times are in EDT time to prevent confusion due to time zone crossing. See the CSN3104 flight status page for this flight to view local times or setup timezone preferences in your user account.

Time Position Orientation Groundspeed Altitude Reporting Facility
EDT Latitude Longitude Course Direction KTS MPH feet Rate Location/Type
03:59AM 39.9595 116.5556 190° South  Level Estimated
04:00AM 39.8390 116.5268 190° South  Level Estimated
04:01AM 39.7184 116.4981 190° South  Level Estimated
04:02AM 39.5978 116.4695 190° South  Level Estimated
04:03AM 39.4772 116.4410 190° South  Level Estimated
04:04AM 39.3566 116.4126 190° South  Level Estimated
04:05AM 39.2360 116.3843 190° South  Level Estimated
04:06AM 39.1154 116.3561 190° South  Level Estimated
04:07AM 38.9948 116.3280 190° South  Level Estimated
04:08AM 38.8742 116.2999 190° South  Level Estimated
04:09AM 38.7536 116.2720 190° South  Level Estimated
04:10AM 38.6329 116.2442 190° South  Level Estimated
04:11AM 38.5123 116.2164 190° South  Level Estimated
04:12AM 38.3916 116.1888 190° South  Level Estimated
04:13AM 38.2710 116.1612 190° South  Level Estimated
04:14AM 38.1503 116.1338 190° South  Level Estimated
04:15AM 38.0296 116.1064 190° South  Level Estimated
04:16AM 37.9090 116.0791 190° South  Level Estimated
04:17AM 37.7883 116.0519 190° South  Level Estimated
04:18AM 37.6676 116.0248 190° South  Level Estimated
04:19AM 37.5469 115.9978 190° South  Level Estimated
04:20AM 37.4262 115.9709 190° South  Level Estimated
04:21AM 37.3055 115.9440 190° South  Level Estimated
04:22AM 37.1848 115.9173 190° South  Level Estimated
04:23AM 37.0641 115.8906 190° South  Level Estimated
04:24AM 36.9434 115.8640 190° South  Level Estimated
04:25AM 36.8226 115.8375 190° South  Level Estimated
04:26AM 36.7019 115.8111 190° South  Level Estimated
04:27AM 36.5812 115.7848 190° South  Level Estimated
04:28AM 36.4604 115.7585 190° South  Level Estimated
04:29AM 36.3396 115.7323 190° South  Level Estimated
04:30AM 36.2189 115.7063 190° South  Level Estimated
04:31AM 36.0981 115.6802 190° South  Level Estimated
04:32AM 35.9774 115.6543 190° South  Level Estimated
04:33AM 35.8566 115.6285 190° South  Level Estimated
04:34AM 35.7358 115.6027 190° South  Level Estimated
04:35AM 35.6150 115.5770 190° South  Level Estimated
04:36AM 35.4942 115.5514 190° South  Level Estimated
04:37AM 35.3734 115.5258 190° South  Level Estimated
04:38AM 35.2526 115.5004 190° South  Level Estimated
04:39AM 35.1318 115.4750 190° South  Level Estimated
04:40AM 35.0110 115.4497 190° South  Level Estimated
04:41AM 34.8902 115.4244 190° South  Level Estimated
04:42AM 34.7694 115.3993 190° South  Level Estimated
04:43AM 34.6485 115.3742 190° South  Level Estimated
04:44AM 34.5277 115.3492 190° South  Level Estimated
04:45AM 34.4069 115.3242 190° South  Level Estimated
04:46AM 34.2860 115.2993 190° South  Level Estimated
04:47AM 34.1652 115.2745 190° South  Level Estimated
04:48AM 34.0443 115.2498 190° South  Level Estimated
04:49AM 33.9235 115.2252 190° South  Level Estimated
04:50AM 33.8026 115.2006 190° South  Level Estimated
04:51AM 33.6817 115.1760 190° South  Level Estimated
04:52AM 33.5609 115.1516 190° South  Level Estimated
04:53AM 33.4400 115.1272 190° South  Level Estimated
04:54AM 33.3191 115.1029 190° South  Level Estimated
04:55AM 33.1982 115.0786 190° South  Level Estimated
04:56AM 33.0773 115.0545 190° South  Level Estimated
04:57AM 32.9564 115.0303 190° South  Level Estimated
04:58AM 32.8355 115.0063 189° South  Level Estimated
04:59AM 32.7146 114.9823 189° South  Level Estimated
05:00AM 32.5937 114.9584 189° South  Level Estimated
05:01AM 32.4728 114.9345 189° South  Level Estimated
05:02AM 32.3519 114.9107 189° South  Level Estimated
05:03AM 32.2310 114.8870 189° South  Level Estimated
05:04AM 32.1100 114.8633 189° South  Level Estimated
05:05AM 31.9891 114.8398 189° South  Level Estimated
05:06AM 31.8682 114.8162 189° South  Level Estimated
05:07AM 31.7472 114.7927 189° South  Level Estimated
05:08AM 31.6263 114.7693 189° South  Level Estimated
05:09AM 31.5053 114.7459 189° South  Level Estimated
05:10AM 31.3844 114.7226 189° South  Level Estimated
05:11AM 31.2634 114.6994 189° South  Level Estimated
05:12AM 31.1425 114.6762 189° South  Level Estimated
05:13AM 31.0215 114.6531 189° South  Level Estimated
05:14AM 30.9005 114.6301 189° South  Level Estimated
05:15AM 30.7795 114.6070 189° South  Level Estimated
05:16AM 30.6586 114.5841 189° South  Level Estimated
05:17AM 30.5376 114.5612 189° South  Level Estimated
05:18AM 30.4166 114.5384 189° South  Level Estimated
05:19AM 30.2956 114.5156 189° South  Level Estimated
05:20AM 30.1746 114.4929 189° South  Level Estimated
05:21AM 30.0536 114.4702 189° South  Level Estimated
05:22AM 29.9326 114.4476 189° South  Level Estimated
05:23AM 29.8116 114.4251 189° South  Level Estimated
05:24AM 29.6906 114.4026 189° South  Level Estimated
05:25AM 29.5696 114.3801 189° South  Level Estimated
05:26AM 29.4486 114.3578 189° South  Level Estimated
05:27AM 29.3275 114.3354 189° South  Level Estimated
05:28AM 29.2065 114.3131 189° South  Level Estimated
05:29AM 29.0855 114.2909 189° South  Level Estimated
05:30AM 28.9645 114.2687 189° South  Level Estimated
05:31AM 28.8434 114.2466 189° South  Level Estimated
05:32AM 28.7224 114.2245 189° South  Level Estimated
05:33AM 28.6013 114.2025 189° South  Level Estimated
05:34AM 28.4803 114.1806 189° South  Level Estimated
05:35AM 28.3592 114.1586 189° South  Level Estimated
05:36AM 28.2382 114.1368 189° South  Level Estimated
05:37AM 28.1171 114.1150 189° South  Level Estimated
05:38AM 27.9961 114.0932 189° South  Level Estimated
05:39AM 27.8750 114.0715 189° South  Level Estimated
05:40AM 27.7539 114.0498 189° South  Level Estimated
05:41AM 27.6329 114.0282 189° South  Level Estimated
05:42AM 27.5118 114.0066 189° South  Level Estimated
05:43AM 27.3907 113.9850 189° South  Level Estimated
05:44AM 27.2696 113.9636 189° South  Level Estimated
05:45AM 27.1486 113.9421 189° South  Level Estimated
05:46AM 27.0275 113.9207 189° South  Level Estimated
05:47AM 26.9064 113.8994 189° South  Level Estimated
05:48AM 26.7853 113.8781 189° South  Level Estimated
05:49AM 26.6642 113.8568 189° South  Level Estimated
05:50AM 26.5431 113.8356 189° South  Level Estimated
05:51AM 26.4220 113.8145 189° South  Level Estimated
05:52AM 26.3009 113.7933 189° South  Level Estimated
05:53AM 26.1798 113.7723 189° South  Level Estimated
05:54AM 26.0586 113.7512 189° South  Level Estimated
05:55AM 25.9375 113.7302 189° South  Level Estimated
05:56AM 25.8164 113.7093 189° South  Level Estimated
05:57AM 25.6953 113.6884 189° South  Level Estimated
05:58AM 25.5742 113.6675 189° South  Level Estimated
05:59AM 25.4530 113.6467 189° South  Level Estimated
06:00AM 25.3319 113.6259 189° South  Level Estimated
06:01AM 25.2108 113.6052 189° South  Level Estimated
06:02AM 25.0896 113.5845 189° South  Level Estimated
06:03AM 24.9685 113.5639 189° South  Level Estimated
06:04AM 24.8474 113.5433 189° South  Level Estimated
06:05AM 24.7262 113.5227 189° South  Level Estimated
06:06AM 24.6051 113.5022 189° South  Level Estimated
06:07AM 24.4839 113.4817 189° South  Level Estimated
06:08AM 24.3628 113.4612 189° South  Level Estimated
06:09AM 24.2416 113.4408 189° South  Level Estimated
06:10AM 24.1204 113.4204 189° South  Level Estimated
06:11AM 23.9993 113.4001 189° South  Level Estimated
06:12AM 23.8781 113.3798 189° South  Level Estimated
06:13AM 23.7570 113.3595 189° South  Level Estimated
06:14AM 23.6358 113.3393 189° South  Level Estimated
06:15AM 23.5146 113.3191 189° South  Level Estimated
06:16AM 23.3934 113.2990 189° South  Level Estimated
06:17AM 23.3924 113.2988 188° South  Level Estimated
06:18AM 23.3924 113.2988 223° Southwest  Level Estimated
06:19AM 23.3924 113.2988 223° Southwest  Level Estimated
06:20AM 23.3924 113.2988 223° Southwest  Level Estimated
06:21AM 23.3924 113.2988 223° Southwest  Level Estimated
06:22AM 23.3924 113.2988 223° Southwest  Level Estimated
06:23AM 23.3924 113.2988 223° Southwest  Level Estimated
06:24AM 23.3924 113.2988 223° Southwest  Level Estimated
06:25AM 23.3924 113.2988 223° Southwest  Level Estimated
06:26AM 23.3924 113.2988 223° Southwest  Level Estimated
06:27AM 23.3924 113.2988 223° Southwest  Level Estimated
06:28AM 23.3924 113.2988 223° Southwest  Level Estimated
06:29AM 23.3924 113.2988 223° Southwest  Level Estimated
06:30AM 23.3924 113.2988 223° Southwest  Level Estimated
06:31AM 23.3924 113.2988 223° Southwest  Level Estimated
06:32AM 23.3924 113.2988 223° Southwest  Level Estimated